• Join FlightAware (Why Join?)
  • Login
  • US Flag 
03:48AM EDT


 

Airport Tracker/Info


-or-


 

Live Flight TrackerFlight Track Log ✈ N2173F ✈ 26-Jul-2013 ✈ KISM - KTLH

Flight Track Log - Related Links

Times and Time Zones

All times are in EDT time to prevent confusion due to time zone crossing. See the N2173F flight status page for this flight to view local times or setup timezone preferences in your user account.

Time Position Orientation Groundspeed Altitude Reporting Facility
EDT Latitude Longitude Course Direction KTS MPH feet Rate Location/Type
12:16PM 28.3000 -81.4333 300° West 80 92 400  Level Orlando TRACON
12:17PM 28.3167 -81.4667 300° West 81 93 1,000 360 Climbing Orlando TRACON
12:18PM 28.3333 -81.4833 319° Northwest 82 94 1,300 300 Climbing Orlando TRACON
12:19PM 28.3500 -81.5000 319° Northwest 83 96 1,700 360 Climbing Orlando TRACON
12:20PM 28.3667 -81.5167 319° Northwest 85 98 2,100 420 Climbing Orlando TRACON
12:21PM 28.4000 -81.5333 336° Northwest 87 100 2,600 480 Climbing Orlando TRACON
12:22PM 28.4167 -81.5500 319° Northwest 78 90 3,100 420 Climbing Orlando TRACON
12:23PM 28.4333 -81.5667 319° Northwest 84 97 3,500 420 Climbing Orlando TRACON
12:24PM 28.4500 -81.5833 319° Northwest 94 108 4,000 420 Climbing Orlando TRACON
12:25PM 28.4667 -81.6000 319° Northwest 95 109 4,400 420 Climbing Orlando TRACON
12:26PM 28.4833 -81.6167 319° Northwest 94 108 4,900 480 Climbing Orlando TRACON
12:27PM 28.5000 -81.6500 300° West 96 110 5,400 480 Climbing Orlando TRACON
12:28PM 28.5333 -81.6667 336° Northwest 93 107 5,900 240 Climbing Orlando TRACON
12:29PM 28.5500 -81.6833 319° Northwest 121 139 6,000 60 Climbing Orlando TRACON
12:30PM 28.5833 -81.7167 319° Northwest 131 151 6,100  Climbing Orlando TRACON
12:31PM 28.6167 -81.7333 336° Northwest 137 158 6,000 -60 Descending Orlando TRACON
12:33PM 28.6692 -81.7947 314° West 134 154 6,000  Level Jacksonville Center
12:34PM 28.6922 -81.8275 309° West 139 160 6,000  Level Jacksonville Center
12:35PM 28.7133 -81.8628 304° West 136 157 6,000  Level Jacksonville Center
12:36PM 28.7389 -81.9006 308° West 133 153 6,000  Level Jacksonville Center
12:37PM 28.7619 -81.9333 309° West 133 153 6,000  Level Jacksonville Center
12:38PM 28.7872 -81.9664 311° West 131 151 6,100  Climbing Jacksonville Center
12:39PM 28.8125 -81.9992 311° West 137 158 6,000  Descending Jacksonville Center
12:40PM 28.8336 -82.0347 304° West 139 160 6,100  Climbing Jacksonville Center
12:42PM 28.8506 -82.0772 294° West 137 158 6,000  Descending Jacksonville Center
12:43PM 28.8697 -82.1125 302° West 136 157 6,100  Climbing Jacksonville Center
12:43PM 28.8867 -82.1456 300° West 134 154 6,100  Level Jacksonville Center
12:45PM 28.9119 -82.1881 304° West 139 160 6,100 -60 Level Jacksonville Center
12:46PM 28.9350 -82.2189 311° West 134 154 6,000  Descending Jacksonville Center
12:47PM 28.9603 -82.2542 309° West 134 154 6,100  Climbing Jacksonville Center
12:48PM 28.9811 -82.2897 304° West 138 159 6,000  Descending Jacksonville Center
12:49PM 29.0064 -82.3228 311° West 134 154 6,100  Climbing Jacksonville Center
12:50PM 29.0294 -82.3558 309° West 135 155 6,100 -60 Level Jacksonville Center
12:51PM 29.0506 -82.3961 301° West 139 160 6,000 -60 Descending Jacksonville Center
12:52PM 29.0714 -82.4222 312° West 135 155 6,000 60 Level Jacksonville Center
12:53PM 29.0967 -82.4578 309° West 131 151 6,200  Climbing Jacksonville Center
12:53PM 29.1156 -82.4719 327° Northwest 133 153 6,100 -120 Descending Jacksonville Center
12:54PM 29.1406 -82.5050 311° West 138 159 6,000  Descending Jacksonville Center
12:56PM 29.1681 -82.5547 302° West 136 157 6,100  Climbing Jacksonville Center
12:56PM 29.1825 -82.5786 305° West 138 159 6,000 -120 Descending Jacksonville Center
12:57PM 29.2036 -82.6119 306° West 138 159 6,000  Level Jacksonville Center
12:58PM 29.2286 -82.6428 313° West 135 155 6,100 -60 Climbing Jacksonville Center
12:59PM 29.2539 -82.6711 316° Northwest 135 155 5,900 -120 Descending Jacksonville Center
01:00PM 29.2789 -82.7022 313° West 140 161 5,900  Level Jacksonville Center
01:01PM 29.3019 -82.7378 307° West 140 161 6,000  Climbing Jacksonville Center
01:02PM 29.3228 -82.7736 304° West 134 154 6,000  Level Jacksonville Center
01:03PM 29.3458 -82.8069 308° West 134 154 6,000 -60 Level Jacksonville Center
01:04PM 29.3689 -82.8425 307° West 134 154 5,900  Descending Jacksonville Center
01:05PM 29.3939 -82.8736 313° West 134 154 6,100  Climbing Jacksonville Center
01:06PM 29.4231 -82.8997 322° Northwest 134 154 6,000 -60 Descending Jacksonville Center
01:07PM 29.4481 -82.9331 311° West 134 154 6,000  Level Jacksonville Center
01:08PM 29.4711 -82.9667 308° West 139 160 6,000  Level Jacksonville Center
01:09PM 29.4939 -83.0022 306° West 133 153 6,100  Climbing Jacksonville Center
01:10PM 29.5147 -83.0311 310° West 133 153 6,100 -60 Level Jacksonville Center
01:11PM 29.5356 -83.0692 302° West 133 153 6,000 -60 Descending Jacksonville Center
01:12PM 29.5564 -83.1075 302° West 133 153 6,000 60 Level Jacksonville Center
01:13PM 29.5814 -83.1386 313° West 133 153 6,200  Climbing Jacksonville Center
01:14PM 29.6086 -83.1697 315° West 133 153 6,100 -120 Descending Jacksonville Center
01:15PM 29.6378 -83.1983 320° Northwest 138 159 6,000  Descending Jacksonville Center
01:16PM 29.6647 -83.2294 315° West 138 159 6,200  Climbing Jacksonville Center
01:17PM 29.6792 -83.2703 292° West 138 159 6,000 -180 Descending Jacksonville Center
01:18PM 29.6917 -83.3133 288° West 143 165 5,900  Descending Jacksonville Center
01:19PM 29.7042 -83.3542 289° West 143 165 6,100  Climbing Jacksonville Center
01:20PM 29.7164 -83.3972 288° West 143 165 6,000 -60 Descending Jacksonville Center
01:21PM 29.7331 -83.4356 297° West 149 171 6,000  Level Jacksonville Center
01:22PM 29.7536 -83.4714 303° West 143 165 6,000  Level Jacksonville Center
01:23PM 29.7828 -83.4981 322° Northwest 138 159 6,100  Climbing Jacksonville Center
01:24PM 29.8139 -83.5222 326° Northwest 132 152 6,000 -180 Descending Jacksonville Center
01:25PM 29.8472 -83.5414 333° Northwest 132 152 5,800 -120 Descending Jacksonville Center
01:26PM 29.8722 -83.5753 310° West 132 152 5,800 60 Level Jacksonville Center
01:27PM 29.8969 -83.6042 315° West 132 152 6,000 60 Climbing Jacksonville Center
01:28PM 29.9219 -83.6378 311° West 132 152 6,000 -60 Level Jacksonville Center
01:29PM 29.9425 -83.6739 303° West 132 152 5,900  Descending Jacksonville Center
01:30PM 29.9592 -83.7125 296° West 132 152 6,000  Climbing Jacksonville Center
01:31PM 29.9797 -83.7511 302° West 137 158 6,000 -60 Level Jacksonville Center
01:32PM 29.9939 -83.7919 292° West 137 158 5,900 -420 Descending Jacksonville Center
01:33PM 30.0061 -83.8375 287° West 142 163 5,200 -660 Descending Jacksonville Center
01:34PM 30.0164 -83.8858 284° West 147 169 4,600 -600 Descending Jacksonville Center
01:35PM 30.0283 -83.9314 287° West 147 169 4,000 -600 Descending Jacksonville Center
01:37PM 30.0664 -83.9594 328° Northwest  Level FlightAware Approximate
01:44PM 30.2457 -84.1714 313° West  Level Estimated
01:45PM 30.2713 -84.2017 305° West  Level Estimated
01:46PM 30.2985 -84.2302 318° Northwest  Level FlightAware Approximate
01:47PM 30.3256 -84.2586 318° Northwest  Level FlightAware Approximate
01:48PM 30.3514 -84.2968 305° West  Level FlightAware Approximate
01:49PM 30.3723 -84.3316 305° West  Level FlightAware Approximate
01:50PM 30.3833 -84.3500 305° West  Level FlightAware Approximate
01:51PM 30.3967 -84.3509 305° West  Level Estimated
01:52PM 30.3967 -84.3509 305° West  Level Estimated
01:53PM 30.3967 -84.3509 305° West  Level Estimated
01:54PM 30.3967 -84.3509 305° West  Level Estimated
01:55PM 30.3967 -84.3509 305° West  Level Estimated
01:56PM 30.3967 -84.3509 305° West  Level Estimated
01:57PM 30.3967 -84.3509 305° West  Level Estimated
01:58PM 30.3967 -84.3509 305° West  Level Estimated
01:59PM 30.3967 -84.3509 305° West  Level Estimated
02:00PM 30.3967 -84.3509 305° West  Level Estimated